sensor_id;sensor_type;location;lat;lon;timestamp;pressure;altitude;pressure_sealevel;temperature;humidity
58785;BME280;44557;51.862;19.378;2022-07-12T00:00:13;99447.84;;;15.14;76.41
58785;BME280;44557;51.862;19.378;2022-07-12T00:01:35;99446.71;;;15.13;76.21
58785;BME280;44557;51.862;19.378;2022-07-12T00:02:36;99447.05;;;15.09;76.36
58785;BME280;44557;51.862;19.378;2022-07-12T00:03:38;99445.91;;;15.12;76.27
58785;BME280;44557;51.862;19.378;2022-07-12T00:04:39;99445.02;;;15.11;76.36
58785;BME280;44557;51.862;19.378;2022-07-12T00:05:41;99443.41;;;15.15;76.26
58785;BME280;44557;51.862;19.378;2022-07-12T00:06:42;99445.92;;;15.18;76.12
58785;BME280;44557;51.862;19.378;2022-07-12T00:07:44;99444.58;;;15.19;75.99
58785;BME280;44557;51.862;19.378;2022-07-12T00:08:45;99447.45;;;15.14;76.21
58785;BME280;44557;51.862;19.378;2022-07-12T00:09:47;99444.31;;;15.11;76.32
58785;BME280;44557;51.862;19.378;2022-07-12T00:10:49;99445.20;;;15.12;76.08
58785;BME280;44557;51.862;19.378;2022-07-12T00:11:51;99446.70;;;15.17;75.85
58785;BME280;44557;51.862;19.378;2022-07-12T00:12:53;99447.82;;;15.18;75.75
58785;BME280;44557;51.862;19.378;2022-07-12T00:13:55;99452.45;;;15.15;75.81
58785;BME280;44557;51.862;19.378;2022-07-12T00:14:57;99450.48;;;15.11;76.03
58785;BME280;44557;51.862;19.378;2022-07-12T00:15:58;99447.90;;;15.07;76.21
58785;BME280;44557;51.862;19.378;2022-07-12T00:17:00;99450.87;;;15.10;76.28
58785;BME280;44557;51.862;19.378;2022-07-12T00:18:01;99451.02;;;15.10;76.05
58785;BME280;44557;51.862;19.378;2022-07-12T00:19:03;99455.39;;;15.15;76.06
58785;BME280;44557;51.862;19.378;2022-07-12T00:20:05;99453.55;;;15.14;75.75
58785;BME280;44557;51.862;19.378;2022-07-12T00:21:07;99454.23;;;15.18;76.07
58785;BME280;44557;51.862;19.378;2022-07-12T00:22:09;99455.14;;;15.25;75.80
58785;BME280;44557;51.862;19.378;2022-07-12T00:23:10;99453.47;;;15.20;75.95
58785;BME280;44557;51.862;19.378;2022-07-12T00:24:12;99453.16;;;15.14;76.01
58785;BME280;44557;51.862;19.378;2022-07-12T00:25:13;99456.00;;;15.19;75.92
58785;BME280;44557;51.862;19.378;2022-07-12T00:26:15;99453.21;;;15.18;75.93
58785;BME280;44557;51.862;19.378;2022-07-12T00:27:17;99452.90;;;15.08;76.22
58785;BME280;44557;51.862;19.378;2022-07-12T00:28:18;99452.32;;;15.11;76.15
58785;BME280;44557;51.862;19.378;2022-07-12T00:29:20;99454.22;;;15.11;76.14
58785;BME280;44557;51.862;19.378;2022-07-12T00:30:21;99448.95;;;15.09;76.46
58785;BME280;44557;51.862;19.378;2022-07-12T00:31:23;99454.63;;;15.06;76.52
58785;BME280;44557;51.862;19.378;2022-07-12T00:32:25;99449.59;;;15.09;76.28
58785;BME280;44557;51.862;19.378;2022-07-12T00:33:26;99455.09;;;15.16;76.21
58785;BME280;44557;51.862;19.378;2022-07-12T00:34:28;99454.04;;;15.15;76.10
58785;BME280;44557;51.862;19.378;2022-07-12T00:35:30;99453.02;;;15.15;76.14
58785;BME280;44557;51.862;19.378;2022-07-12T00:36:31;99452.73;;;15.08;76.22
58785;BME280;44557;51.862;19.378;2022-07-12T00:37:33;99457.86;;;15.10;76.21
58785;BME280;44557;51.862;19.378;2022-07-12T00:38:35;99456.41;;;15.10;76.19
58785;BME280;44557;51.862;19.378;2022-07-12T00:39:36;99458.13;;;15.13;75.97
58785;BME280;44557;51.862;19.378;2022-07-12T00:40:38;99454.90;;;15.09;76.17
58785;BME280;44557;51.862;19.378;2022-07-12T00:41:39;99456.77;;;15.12;76.17
58785;BME280;44557;51.862;19.378;2022-07-12T00:42:41;99455.38;;;15.08;76.21
58785;BME280;44557;51.862;19.378;2022-07-12T00:43:42;99456.23;;;15.14;75.95
58785;BME280;44557;51.862;19.378;2022-07-12T00:44:44;99453.18;;;15.05;76.44
58785;BME280;44557;51.862;19.378;2022-07-12T00:45:45;99457.90;;;15.03;76.40
58785;BME280;44557;51.862;19.378;2022-07-12T00:46:47;99457.02;;;15.07;76.24
58785;BME280;44557;51.862;19.378;2022-07-12T00:47:50;99455.01;;;15.05;76.30
58785;BME280;44557;51.862;19.378;2022-07-12T00:48:53;99454.40;;;15.07;76.15
58785;BME280;44557;51.862;19.378;2022-07-12T00:49:55;99456.56;;;15.08;76.19
58785;BME280;44557;51.862;19.378;2022-07-12T00:50:57;99457.20;;;15.09;76.17
58785;BME280;44557;51.862;19.378;2022-07-12T00:51:58;99458.17;;;15.10;76.28
58785;BME280;44557;51.862;19.378;2022-07-12T00:53:00;99455.77;;;15.09;76.30
58785;BME280;44557;51.862;19.378;2022-07-12T00:54:03;99455.10;;;15.07;76.28
58785;BME280;44557;51.862;19.378;2022-07-12T00:55:06;99456.41;;;15.09;76.18
58785;BME280;44557;51.862;19.378;2022-07-12T00:56:08;99456.27;;;15.06;76.38
58785;BME280;44557;51.862;19.378;2022-07-12T00:57:10;99452.16;;;15.07;76.25
58785;BME280;44557;51.862;19.378;2022-07-12T00:58:11;99453.50;;;15.05;76.12
58785;BME280;44557;51.862;19.378;2022-07-12T00:59:12;99454.17;;;15.09;75.93
58785;BME280;44557;51.862;19.378;2022-07-12T01:00:26;99455.86;;;15.04;76.09
58785;BME280;44557;51.862;19.378;2022-07-12T01:01:28;99455.71;;;15.00;76.58
58785;BME280;44557;51.862;19.378;2022-07-12T01:02:30;99455.86;;;15.04;76.53
58785;BME280;44557;51.862;19.378;2022-07-12T01:03:32;99456.61;;;15.06;76.34
58785;BME280;44557;51.862;19.378;2022-07-12T01:04:35;99453.29;;;14.97;76.36
58785;BME280;44557;51.862;19.378;2022-07-12T01:05:37;99452.33;;;15.01;76.03
58785;BME280;44557;51.862;19.378;2022-07-12T01:06:39;99452.85;;;15.05;76.09
58785;BME280;44557;51.862;19.378;2022-07-12T01:07:40;99456.48;;;15.09;75.67
58785;BME280;44557;51.862;19.378;2022-07-12T01:08:42;99456.51;;;15.10;75.69
58785;BME280;44557;51.862;19.378;2022-07-12T01:09:44;99454.88;;;15.02;75.98
58785;BME280;44557;51.862;19.378;2022-07-12T01:10:48;99455.23;;;15.05;75.82
58785;BME280;44557;51.862;19.378;2022-07-12T01:11:51;99453.84;;;15.01;76.10
58785;BME280;44557;51.862;19.378;2022-07-12T01:12:52;99454.02;;;15.04;76.09
58785;BME280;44557;51.862;19.378;2022-07-12T01:13:54;99454.64;;;14.97;76.10
58785;BME280;44557;51.862;19.378;2022-07-12T01:14:58;99451.45;;;15.01;76.07
58785;BME280;44557;51.862;19.378;2022-07-12T01:16:01;99455.58;;;14.97;75.93
58785;BME280;44557;51.862;19.378;2022-07-12T01:17:02;99449.93;;;14.94;76.06
58785;BME280;44557;51.862;19.378;2022-07-12T01:18:04;99451.91;;;14.95;76.24
58785;BME280;44557;51.862;19.378;2022-07-12T01:19:06;99453.38;;;14.97;76.25
58785;BME280;44557;51.862;19.378;2022-07-12T01:20:09;99448.58;;;15.00;76.07
58785;BME280;44557;51.862;19.378;2022-07-12T01:21:16;99447.77;;;14.98;76.03
58785;BME280;44557;51.862;19.378;2022-07-12T01:22:21;99445.05;;;14.97;75.98
58785;BME280;44557;51.862;19.378;2022-07-12T01:23:26;99447.23;;;14.94;76.30
58785;BME280;44557;51.862;19.378;2022-07-12T01:24:28;99448.15;;;14.97;76.17
58785;BME280;44557;51.862;19.378;2022-07-12T01:25:29;99445.95;;;14.94;76.08
58785;BME280;44557;51.862;19.378;2022-07-12T01:26:31;99450.41;;;14.90;76.32
58785;BME280;44557;51.862;19.378;2022-07-12T01:27:33;99447.36;;;14.88;76.33
58785;BME280;44557;51.862;19.378;2022-07-12T01:28:35;99446.59;;;14.94;76.30
58785;BME280;44557;51.862;19.378;2022-07-12T01:29:37;99449.29;;;14.94;76.28
58785;BME280;44557;51.862;19.378;2022-07-12T01:30:40;99446.02;;;14.93;76.32
58785;BME280;44557;51.862;19.378;2022-07-12T01:31:42;99445.65;;;14.90;76.09
58785;BME280;44557;51.862;19.378;2022-07-12T01:32:45;99447.50;;;14.92;76.15
58785;BME280;44557;51.862;19.378;2022-07-12T01:33:46;99446.49;;;14.88;76.63
58785;BME280;44557;51.862;19.378;2022-07-12T01:34:49;99448.21;;;14.87;76.30
58785;BME280;44557;51.862;19.378;2022-07-12T01:35:52;99448.80;;;14.89;76.32
58785;BME280;44557;51.862;19.378;2022-07-12T01:36:53;99447.05;;;14.83;76.45
58785;BME280;44557;51.862;19.378;2022-07-12T01:37:55;99442.24;;;14.80;76.69
58785;BME280;44557;51.862;19.378;2022-07-12T01:38:57;99447.38;;;14.79;76.71
58785;BME280;44557;51.862;19.378;2022-07-12T01:40:00;99445.41;;;14.75;76.79
58785;BME280;44557;51.862;19.378;2022-07-12T01:41:01;99446.38;;;14.75;76.96
58785;BME280;44557;51.862;19.378;2022-07-12T01:42:03;99446.45;;;14.80;76.65
58785;BME280;44557;51.862;19.378;2022-07-12T01:43:05;99446.54;;;14.86;76.29
58785;BME280;44557;51.862;19.378;2022-07-12T01:44:07;99443.19;;;14.79;76.91
58785;BME280;44557;51.862;19.378;2022-07-12T01:45:09;99443.18;;;14.79;76.73
58785;BME280;44557;51.862;19.378;2022-07-12T01:46:11;99444.41;;;14.87;76.59
58785;BME280;44557;51.862;19.378;2022-07-12T01:47:13;99441.77;;;14.90;76.39
58785;BME280;44557;51.862;19.378;2022-07-12T01:48:14;99440.17;;;14.84;76.44
58785;BME280;44557;51.862;19.378;2022-07-12T01:49:16;99439.95;;;14.80;76.77
58785;BME280;44557;51.862;19.378;2022-07-12T01:50:17;99442.37;;;14.83;76.48
58785;BME280;44557;51.862;19.378;2022-07-12T01:51:19;99442.54;;;14.83;76.28
58785;BME280;44557;51.862;19.378;2022-07-12T01:52:20;99441.60;;;14.85;76.53
58785;BME280;44557;51.862;19.378;2022-07-12T01:53:22;99444.09;;;14.82;76.41
58785;BME280;44557;51.862;19.378;2022-07-12T01:54:24;99441.67;;;14.78;76.53
58785;BME280;44557;51.862;19.378;2022-07-12T01:55:27;99443.94;;;14.77;76.52
58785;BME280;44557;51.862;19.378;2022-07-12T01:56:28;99443.85;;;14.75;76.65
58785;BME280;44557;51.862;19.378;2022-07-12T01:57:31;99441.79;;;14.76;76.47
58785;BME280;44557;51.862;19.378;2022-07-12T01:58:33;99442.75;;;14.77;76.48
58785;BME280;44557;51.862;19.378;2022-07-12T01:59:36;99442.90;;;14.81;76.64
58785;BME280;44557;51.862;19.378;2022-07-12T02:00:37;99439.98;;;14.82;76.43
58785;BME280;44557;51.862;19.378;2022-07-12T02:01:39;99441.92;;;14.79;76.62
58785;BME280;44557;51.862;19.378;2022-07-12T02:02:41;99440.38;;;14.77;76.46
58785;BME280;44557;51.862;19.378;2022-07-12T02:03:44;99442.04;;;14.82;76.31
58785;BME280;44557;51.862;19.378;2022-07-12T02:04:45;99440.47;;;14.73;76.60
58785;BME280;44557;51.862;19.378;2022-07-12T02:05:47;99439.98;;;14.71;76.88
58785;BME280;44557;51.862;19.378;2022-07-12T02:06:49;99437.45;;;14.78;76.73
58785;BME280;44557;51.862;19.378;2022-07-12T02:07:51;99435.36;;;14.81;76.74
58785;BME280;44557;51.862;19.378;2022-07-12T02:08:54;99433.38;;;14.75;76.47
58785;BME280;44557;51.862;19.378;2022-07-12T02:09:56;99431.87;;;14.80;76.17
58785;BME280;44557;51.862;19.378;2022-07-12T02:10:58;99430.27;;;14.79;76.42
58785;BME280;44557;51.862;19.378;2022-07-12T02:12:00;99433.33;;;14.82;76.25
58785;BME280;44557;51.862;19.378;2022-07-12T02:13:05;99435.50;;;14.84;76.30
58785;BME280;44557;51.862;19.378;2022-07-12T02:14:08;99436.02;;;14.82;76.27
58785;BME280;44557;51.862;19.378;2022-07-12T02:15:10;99432.84;;;14.77;76.47
58785;BME280;44557;51.862;19.378;2022-07-12T02:16:12;99432.92;;;14.76;76.49
58785;BME280;44557;51.862;19.378;2022-07-12T02:17:13;99436.17;;;14.72;76.67
58785;BME280;44557;51.862;19.378;2022-07-12T02:18:15;99436.53;;;14.70;76.53
58785;BME280;44557;51.862;19.378;2022-07-12T02:19:16;99435.67;;;14.75;76.80
58785;BME280;44557;51.862;19.378;2022-07-12T02:20:18;99438.92;;;14.75;76.52
58785;BME280;44557;51.862;19.378;2022-07-12T02:21:19;99436.94;;;14.70;76.66
58785;BME280;44557;51.862;19.378;2022-07-12T02:22:21;99433.63;;;14.71;76.59
58785;BME280;44557;51.862;19.378;2022-07-12T02:23:22;99433.23;;;14.71;76.67
58785;BME280;44557;51.862;19.378;2022-07-12T02:24:23;99431.64;;;14.66;76.90
58785;BME280;44557;51.862;19.378;2022-07-12T02:25:25;99433.10;;;14.68;76.68
58785;BME280;44557;51.862;19.378;2022-07-12T02:26:27;99430.59;;;14.65;76.68
58785;BME280;44557;51.862;19.378;2022-07-12T02:27:29;99433.66;;;14.63;77.03
58785;BME280;44557;51.862;19.378;2022-07-12T02:28:30;99431.58;;;14.67;76.69
58785;BME280;44557;51.862;19.378;2022-07-12T02:29:32;99425.14;;;14.70;76.38
58785;BME280;44557;51.862;19.378;2022-07-12T02:30:34;99428.77;;;14.71;76.57
58785;BME280;44557;51.862;19.378;2022-07-12T02:31:35;99427.05;;;14.71;76.62
58785;BME280;44557;51.862;19.378;2022-07-12T02:32:37;99428.23;;;14.67;76.86
58785;BME280;44557;51.862;19.378;2022-07-12T02:33:39;99425.30;;;14.66;76.79
58785;BME280;44557;51.862;19.378;2022-07-12T02:34:40;99425.23;;;14.66;76.90
58785;BME280;44557;51.862;19.378;2022-07-12T02:35:42;99426.02;;;14.61;77.12
58785;BME280;44557;51.862;19.378;2022-07-12T02:36:44;99424.14;;;14.62;77.07
58785;BME280;44557;51.862;19.378;2022-07-12T02:37:45;99426.95;;;14.59;77.21
58785;BME280;44557;51.862;19.378;2022-07-12T02:38:47;99426.42;;;14.56;77.30
58785;BME280;44557;51.862;19.378;2022-07-12T02:39:49;99421.52;;;14.57;77.18
58785;BME280;44557;51.862;19.378;2022-07-12T02:40:50;99422.13;;;14.65;76.52
58785;BME280;44557;51.862;19.378;2022-07-12T02:41:55;99419.80;;;14.68;76.81
58785;BME280;44557;51.862;19.378;2022-07-12T02:42:56;99419.89;;;14.64;76.94
58785;BME280;44557;51.862;19.378;2022-07-12T02:43:58;99423.00;;;14.65;76.74
58785;BME280;44557;51.862;19.378;2022-07-12T02:44:59;99421.46;;;14.59;76.78
58785;BME280;44557;51.862;19.378;2022-07-12T02:46:11;99417.77;;;14.61;77.04
58785;BME280;44557;51.862;19.378;2022-07-12T02:47:13;99418.89;;;14.61;76.86
58785;BME280;44557;51.862;19.378;2022-07-12T02:48:14;99419.02;;;14.64;76.93
58785;BME280;44557;51.862;19.378;2022-07-12T02:49:16;99419.82;;;14.59;76.82
58785;BME280;44557;51.862;19.378;2022-07-12T02:50:17;99417.84;;;14.60;77.04
58785;BME280;44557;51.862;19.378;2022-07-12T02:51:19;99419.41;;;14.64;77.03
58785;BME280;44557;51.862;19.378;2022-07-12T02:52:21;99415.46;;;14.60;76.94
58785;BME280;44557;51.862;19.378;2022-07-12T02:53:22;99416.02;;;14.59;77.34
58785;BME280;44557;51.862;19.378;2022-07-12T02:54:24;99418.67;;;14.52;77.27
58785;BME280;44557;51.862;19.378;2022-07-12T02:55:25;99411.93;;;14.52;77.50
58785;BME280;44557;51.862;19.378;2022-07-12T02:56:27;99414.11;;;14.49;77.55
58785;BME280;44557;51.862;19.378;2022-07-12T02:57:28;99415.70;;;14.54;77.44
58785;BME280;44557;51.862;19.378;2022-07-12T02:58:30;99413.15;;;14.53;77.28
58785;BME280;44557;51.862;19.378;2022-07-12T02:59:32;99413.63;;;14.49;77.73
58785;BME280;44557;51.862;19.378;2022-07-12T03:00:35;99418.00;;;14.55;77.49
58785;BME280;44557;51.862;19.378;2022-07-12T03:01:36;99413.66;;;14.51;77.65
58785;BME280;44557;51.862;19.378;2022-07-12T03:02:38;99414.86;;;14.47;77.82
58785;BME280;44557;51.862;19.378;2022-07-12T03:03:40;99414.89;;;14.49;77.80
58785;BME280;44557;51.862;19.378;2022-07-12T03:04:41;99416.73;;;14.51;77.73
58785;BME280;44557;51.862;19.378;2022-07-12T03:05:43;99418.98;;;14.47;77.64
58785;BME280;44557;51.862;19.378;2022-07-12T03:06:45;99421.02;;;14.47;77.86
58785;BME280;44557;51.862;19.378;2022-07-12T03:07:46;99417.27;;;14.45;77.75
58785;BME280;44557;51.862;19.378;2022-07-12T03:08:48;99419.79;;;14.52;77.57
58785;BME280;44557;51.862;19.378;2022-07-12T03:09:49;99421.08;;;14.49;77.69
58785;BME280;44557;51.862;19.378;2022-07-12T03:10:51;99419.77;;;14.47;77.86
58785;BME280;44557;51.862;19.378;2022-07-12T03:11:53;99423.70;;;14.45;77.82
58785;BME280;44557;51.862;19.378;2022-07-12T03:12:54;99426.75;;;14.48;77.81
58785;BME280;44557;51.862;19.378;2022-07-12T03:13:56;99422.34;;;14.49;77.75
58785;BME280;44557;51.862;19.378;2022-07-12T03:14:57;99421.21;;;14.48;77.94
58785;BME280;44557;51.862;19.378;2022-07-12T03:15:59;99423.86;;;14.45;77.89
58785;BME280;44557;51.862;19.378;2022-07-12T03:17:01;99422.80;;;14.48;78.02
58785;BME280;44557;51.862;19.378;2022-07-12T03:18:02;99422.16;;;14.48;77.83
58785;BME280;44557;51.862;19.378;2022-07-12T03:19:04;99421.07;;;14.44;78.00
58785;BME280;44557;51.862;19.378;2022-07-12T03:20:07;99424.33;;;14.45;78.10
58785;BME280;44557;51.862;19.378;2022-07-12T03:21:10;99427.19;;;14.40;78.20
58785;BME280;44557;51.862;19.378;2022-07-12T03:22:12;99423.64;;;14.37;78.37
58785;BME280;44557;51.862;19.378;2022-07-12T03:23:14;99425.23;;;14.42;78.16
58785;BME280;44557;51.862;19.378;2022-07-12T03:24:15;99424.66;;;14.45;78.06
58785;BME280;44557;51.862;19.378;2022-07-12T03:25:18;99423.46;;;14.45;78.28
58785;BME280;44557;51.862;19.378;2022-07-12T03:26:20;99426.48;;;14.50;77.90
58785;BME280;44557;51.862;19.378;2022-07-12T03:27:21;99427.89;;;14.49;77.87
58785;BME280;44557;51.862;19.378;2022-07-12T03:28:23;99427.23;;;14.52;77.95
58785;BME280;44557;51.862;19.378;2022-07-12T03:29:26;99427.75;;;14.46;78.00
58785;BME280;44557;51.862;19.378;2022-07-12T03:30:28;99428.92;;;14.50;77.71
58785;BME280;44557;51.862;19.378;2022-07-12T03:31:29;99429.08;;;14.45;78.17
58785;BME280;44557;51.862;19.378;2022-07-12T03:32:31;99431.98;;;14.52;77.84
58785;BME280;44557;51.862;19.378;2022-07-12T03:33:32;99428.09;;;14.47;77.80
58785;BME280;44557;51.862;19.378;2022-07-12T03:34:36;99430.31;;;14.48;77.98
58785;BME280;44557;51.862;19.378;2022-07-12T03:35:37;99428.91;;;14.45;78.21
58785;BME280;44557;51.862;19.378;2022-07-12T03:36:39;99426.93;;;14.49;77.94
58785;BME280;44557;51.862;19.378;2022-07-12T03:37:44;99429.00;;;14.50;77.77
58785;BME280;44557;51.862;19.378;2022-07-12T03:38:45;99423.84;;;14.49;77.97
58785;BME280;44557;51.862;19.378;2022-07-12T03:39:47;99426.84;;;14.44;78.13
58785;BME280;44557;51.862;19.378;2022-07-12T03:40:49;99425.77;;;14.45;78.18
58785;BME280;44557;51.862;19.378;2022-07-12T03:41:50;99424.96;;;14.45;77.90
58785;BME280;44557;51.862;19.378;2022-07-12T03:42:52;99427.77;;;14.46;77.99
58785;BME280;44557;51.862;19.378;2022-07-12T03:43:53;99427.03;;;14.46;78.03
58785;BME280;44557;51.862;19.378;2022-07-12T03:44:55;99428.42;;;14.48;78.04
58785;BME280;44557;51.862;19.378;2022-07-12T03:45:56;99427.77;;;14.48;78.15
58785;BME280;44557;51.862;19.378;2022-07-12T03:46:58;99426.20;;;14.53;77.79
58785;BME280;44557;51.862;19.378;2022-07-12T03:47:59;99426.86;;;14.54;77.97
58785;BME280;44557;51.862;19.378;2022-07-12T03:49:01;99420.30;;;14.55;78.03
58785;BME280;44557;51.862;19.378;2022-07-12T03:50:15;99418.95;;;14.54;77.83
58785;BME280;44557;51.862;19.378;2022-07-12T03:51:17;99416.55;;;14.54;78.09
58785;BME280;44557;51.862;19.378;2022-07-12T03:52:18;99412.64;;;14.57;77.92
58785;BME280;44557;51.862;19.378;2022-07-12T03:53:20;99415.39;;;14.55;77.86
58785;BME280;44557;51.862;19.378;2022-07-12T03:54:22;99416.13;;;14.56;78.17
58785;BME280;44557;51.862;19.378;2022-07-12T03:55:24;99415.77;;;14.59;77.96
58785;BME280;44557;51.862;19.378;2022-07-12T03:56:25;99414.33;;;14.58;78.00
58785;BME280;44557;51.862;19.378;2022-07-12T03:57:45;99411.67;;;14.61;77.87
58785;BME280;44557;51.862;19.378;2022-07-12T03:58:47;99411.23;;;14.58;78.07
58785;BME280;44557;51.862;19.378;2022-07-12T03:59:49;99410.81;;;14.62;77.58
58785;BME280;44557;51.862;19.378;2022-07-12T04:00:50;99407.89;;;14.62;77.73
58785;BME280;44557;51.862;19.378;2022-07-12T04:01:52;99410.46;;;14.64;77.59
58785;BME280;44557;51.862;19.378;2022-07-12T04:02:53;99408.65;;;14.64;77.63
58785;BME280;44557;51.862;19.378;2022-07-12T04:03:56;99405.88;;;14.64;77.63
58785;BME280;44557;51.862;19.378;2022-07-12T04:04:57;99405.79;;;14.64;77.82
58785;BME280;44557;51.862;19.378;2022-07-12T04:05:59;99405.59;;;14.66;77.73
58785;BME280;44557;51.862;19.378;2022-07-12T04:07:00;99403.77;;;14.71;77.71
58785;BME280;44557;51.862;19.378;2022-07-12T04:08:02;99401.48;;;14.72;77.66
58785;BME280;44557;51.862;19.378;2022-07-12T04:09:05;99402.65;;;14.76;77.60
58785;BME280;44557;51.862;19.378;2022-07-12T04:10:07;99401.86;;;14.77;77.36
58785;BME280;44557;51.862;19.378;2022-07-12T04:11:09;99399.73;;;14.76;77.37
58785;BME280;44557;51.862;19.378;2022-07-12T04:12:11;99402.58;;;14.81;77.48
58785;BME280;44557;51.862;19.378;2022-07-12T04:13:12;99402.64;;;14.81;77.11
58785;BME280;44557;51.862;19.378;2022-07-12T04:14:14;99399.86;;;14.81;77.33
58785;BME280;44557;51.862;19.378;2022-07-12T04:15:15;99400.65;;;14.86;77.20
58785;BME280;44557;51.862;19.378;2022-07-12T04:16:17;99399.30;;;14.85;76.93
58785;BME280;44557;51.862;19.378;2022-07-12T04:17:18;99403.80;;;14.90;76.75
58785;BME280;44557;51.862;19.378;2022-07-12T04:18:20;99403.14;;;14.93;76.86
58785;BME280;44557;51.862;19.378;2022-07-12T04:19:22;99405.67;;;14.98;76.88
58785;BME280;44557;51.862;19.378;2022-07-12T04:20:29;99403.30;;;14.98;77.00
58785;BME280;44557;51.862;19.378;2022-07-12T04:21:33;99403.61;;;14.98;76.81
58785;BME280;44557;51.862;19.378;2022-07-12T04:22:35;99403.40;;;15.00;76.83
58785;BME280;44557;51.862;19.378;2022-07-12T04:23:36;99400.47;;;15.00;76.62
58785;BME280;44557;51.862;19.378;2022-07-12T04:24:38;99401.36;;;15.02;76.56
58785;BME280;44557;51.862;19.378;2022-07-12T04:25:39;99402.08;;;15.01;76.57
58785;BME280;44557;51.862;19.378;2022-07-12T04:26:41;99399.84;;;15.00;76.41
58785;BME280;44557;51.862;19.378;2022-07-12T04:27:43;99402.52;;;15.10;76.44
58785;BME280;44557;51.862;19.378;2022-07-12T04:28:44;99402.54;;;15.17;76.27
58785;BME280;44557;51.862;19.378;2022-07-12T04:29:46;99403.52;;;15.14;76.44
58785;BME280;44557;51.862;19.378;2022-07-12T04:30:47;99402.68;;;15.22;76.05
58785;BME280;44557;51.862;19.378;2022-07-12T04:31:51;99403.94;;;15.27;75.93
58785;BME280;44557;51.862;19.378;2022-07-12T04:32:53;99404.77;;;15.30;75.46
58785;BME280;44557;51.862;19.378;2022-07-12T04:33:54;99402.16;;;15.30;75.54
58785;BME280;44557;51.862;19.378;2022-07-12T04:34:56;99403.95;;;15.33;75.57
58785;BME280;44557;51.862;19.378;2022-07-12T04:35:57;99404.28;;;15.34;75.46
58785;BME280;44557;51.862;19.378;2022-07-12T04:36:59;99405.68;;;15.33;75.53
58785;BME280;44557;51.862;19.378;2022-07-12T04:38:00;99405.73;;;15.41;75.27
58785;BME280;44557;51.862;19.378;2022-07-12T04:39:03;99402.35;;;15.38;75.51
58785;BME280;44557;51.862;19.378;2022-07-12T04:40:06;99400.23;;;15.40;75.14
58785;BME280;44557;51.862;19.378;2022-07-12T04:41:07;99403.06;;;15.44;75.26
58785;BME280;44557;51.862;19.378;2022-07-12T04:42:09;99402.97;;;15.48;74.98
58785;BME280;44557;51.862;19.378;2022-07-12T04:43:10;99405.36;;;15.50;74.96
58785;BME280;44557;51.862;19.378;2022-07-12T04:44:12;99400.45;;;15.57;74.78
58785;BME280;44557;51.862;19.378;2022-07-12T04:45:13;99398.30;;;15.48;74.87
58785;BME280;44557;51.862;19.378;2022-07-12T04:46:15;99405.31;;;15.40;75.11
58785;BME280;44557;51.862;19.378;2022-07-12T04:47:16;99402.39;;;15.46;75.04
58785;BME280;44557;51.862;19.378;2022-07-12T04:48:18;99399.55;;;15.54;74.72
58785;BME280;44557;51.862;19.378;2022-07-12T04:49:19;99404.73;;;15.57;74.89
58785;BME280;44557;51.862;19.378;2022-07-12T04:50:21;99407.77;;;15.59;74.92
58785;BME280;44557;51.862;19.378;2022-07-12T04:51:22;99405.30;;;15.57;74.75
58785;BME280;44557;51.862;19.378;2022-07-12T04:52:24;99406.18;;;15.58;74.61
58785;BME280;44557;51.862;19.378;2022-07-12T04:53:26;99401.74;;;15.58;74.45
58785;BME280;44557;51.862;19.378;2022-07-12T04:54:27;99403.41;;;15.65;74.39
58785;BME280;44557;51.862;19.378;2022-07-12T04:55:29;99404.96;;;15.62;74.63
58785;BME280;44557;51.862;19.378;2022-07-12T04:56:31;99403.30;;;15.63;74.53
58785;BME280;44557;51.862;19.378;2022-07-12T04:57:32;99401.66;;;15.65;74.66
58785;BME280;44557;51.862;19.378;2022-07-12T04:58:34;99402.77;;;15.71;74.37
58785;BME280;44557;51.862;19.378;2022-07-12T04:59:36;99400.66;;;15.74;74.30
58785;BME280;44557;51.862;19.378;2022-07-12T05:00:37;99398.92;;;15.89;73.92
58785;BME280;44557;51.862;19.378;2022-07-12T05:01:39;99398.20;;;15.95;73.95
58785;BME280;44557;51.862;19.378;2022-07-12T05:02:41;99395.22;;;15.98;74.09
58785;BME280;44557;51.862;19.378;2022-07-12T05:03:43;99391.54;;;16.03;73.51
58785;BME280;44557;51.862;19.378;2022-07-12T05:04:44;99394.44;;;16.08;73.31
58785;BME280;44557;51.862;19.378;2022-07-12T05:05:47;99392.63;;;16.10;73.22
58785;BME280;44557;51.862;19.378;2022-07-12T05:06:48;99396.62;;;16.11;73.24
58785;BME280;44557;51.862;19.378;2022-07-12T05:07:50;99393.35;;;16.11;73.35
58785;BME280;44557;51.862;19.378;2022-07-12T05:08:52;99394.55;;;16.13;73.29
58785;BME280;44557;51.862;19.378;2022-07-12T05:09:53;99391.73;;;16.15;73.18
58785;BME280;44557;51.862;19.378;2022-07-12T05:10:55;99392.06;;;16.25;72.79
58785;BME280;44557;51.862;19.378;2022-07-12T05:11:57;99395.45;;;16.23;72.83
58785;BME280;44557;51.862;19.378;2022-07-12T05:12:58;99389.81;;;16.24;72.93
58785;BME280;44557;51.862;19.378;2022-07-12T05:14:00;99390.71;;;16.26;73.01
58785;BME280;44557;51.862;19.378;2022-07-12T05:15:05;99390.98;;;16.28;72.87
58785;BME280;44557;51.862;19.378;2022-07-12T05:16:08;99389.45;;;16.36;72.84
58785;BME280;44557;51.862;19.378;2022-07-12T05:17:10;99388.20;;;16.38;72.75
58785;BME280;44557;51.862;19.378;2022-07-12T05:18:12;99387.23;;;16.36;72.54
58785;BME280;44557;51.862;19.378;2022-07-12T05:19:14;99385.25;;;16.36;72.62
58785;BME280;44557;51.862;19.378;2022-07-12T05:20:17;99383.54;;;16.40;72.65
58785;BME280;44557;51.862;19.378;2022-07-12T05:21:18;99391.32;;;16.41;72.66
58785;BME280;44557;51.862;19.378;2022-07-12T05:22:20;99389.68;;;16.43;72.49
58785;BME280;44557;51.862;19.378;2022-07-12T05:23:21;99392.04;;;16.49;72.34
58785;BME280;44557;51.862;19.378;2022-07-12T05:24:23;99393.52;;;16.53;72.23